Cloverdale, Iowa
Current Conditions -  °F | °C
As of 8:15 AM on Sunday 25 Jan 2015 (Local Time) from KSHL Reporting Station
Overcast Overcast  
Wind Chill: 20°   Ceiling: 700
Heat Index: 32°   Visibility: 8mi
Dew Point: 32°   Wind: 18mph
Humidity: 100%   Direction: 20°NNE
Pressure: 29.89"   Gusts: NA
Location:  43.4213°N, 95.7453°W
Report Text: KSHL 251415Z AUTO 02016KT 8SM OVC007 00/00 A2989 RMK AO2
Loading
Personal Weather Stations






























Interactive Weather Map New forecast layout! Learn more

10-Day Weather Forecast

Advertisements
Track Severe Weather on mobile